sensor_id;sensor_type;location;lat;lon;timestamp;P1;durP1;ratioP1;P2;durP2;ratioP2
32080;SDS011;18593;51.426;7.030;2023-09-19T00:00:37;12.00;;;2.45;;
32080;SDS011;18593;51.426;7.030;2023-09-19T00:03:07;13.75;;;2.60;;
32080;SDS011;18593;51.426;7.030;2023-09-19T00:05:35;9.00;;;2.10;;
32080;SDS011;18593;51.426;7.030;2023-09-19T00:08:05;10.48;;;2.95;;
32080;SDS011;18593;51.426;7.030;2023-09-19T00:10:33;14.90;;;2.97;;
32080;SDS011;18593;51.426;7.030;2023-09-19T00:13:03;8.63;;;2.33;;
32080;SDS011;18593;51.426;7.030;2023-09-19T00:15:35;16.20;;;2.65;;
32080;SDS011;18593;51.426;7.030;2023-09-19T00:18:06;9.45;;;2.80;;
32080;SDS011;18593;51.426;7.030;2023-09-19T00:20:35;9.68;;;2.70;;
32080;SDS011;18593;51.426;7.030;2023-09-19T00:23:04;12.57;;;2.97;;
32080;SDS011;18593;51.426;7.030;2023-09-19T00:25:34;9.90;;;2.45;;
32080;SDS011;18593;51.426;7.030;2023-09-19T00:28:05;15.73;;;2.72;;
32080;SDS011;18593;51.426;7.030;2023-09-19T00:30:33;12.18;;;2.80;;
32080;SDS011;18593;51.426;7.030;2023-09-19T00:33:04;14.63;;;3.28;;
32080;SDS011;18593;51.426;7.030;2023-09-19T00:35:33;13.02;;;2.65;;
32080;SDS011;18593;51.426;7.030;2023-09-19T00:38:02;11.07;;;2.47;;
32080;SDS011;18593;51.426;7.030;2023-09-19T00:40:31;8.90;;;2.50;;
32080;SDS011;18593;51.426;7.030;2023-09-19T00:43:00;11.73;;;2.63;;
32080;SDS011;18593;51.426;7.030;2023-09-19T00:45:29;13.00;;;3.00;;
32080;SDS011;18593;51.426;7.030;2023-09-19T00:48:04;13.45;;;2.60;;
32080;SDS011;18593;51.426;7.030;2023-09-19T00:50:34;10.73;;;2.70;;
32080;SDS011;18593;51.426;7.030;2023-09-19T00:53:02;10.75;;;2.80;;
32080;SDS011;18593;51.426;7.030;2023-09-19T00:55:33;15.25;;;2.78;;
32080;SDS011;18593;51.426;7.030;2023-09-19T00:58:02;13.38;;;2.80;;
32080;SDS011;18593;51.426;7.030;2023-09-19T01:00:33;11.13;;;2.70;;
32080;SDS011;18593;51.426;7.030;2023-09-19T01:03:03;15.85;;;3.03;;
32080;SDS011;18593;51.426;7.030;2023-09-19T01:05:33;9.25;;;2.15;;
32080;SDS011;18593;51.426;7.030;2023-09-19T01:08:03;15.25;;;3.00;;
32080;SDS011;18593;51.426;7.030;2023-09-19T01:10:36;9.70;;;2.85;;
32080;SDS011;18593;51.426;7.030;2023-09-19T01:13:13;12.70;;;2.78;;
32080;SDS011;18593;51.426;7.030;2023-09-19T01:16:00;8.35;;;2.30;;
32080;SDS011;18593;51.426;7.030;2023-09-19T01:18:39;10.68;;;2.13;;
32080;SDS011;18593;51.426;7.030;2023-09-19T01:21:18;13.20;;;2.78;;
32080;SDS011;18593;51.426;7.030;2023-09-19T01:24:18;13.40;;;2.78;;
32080;SDS011;18593;51.426;7.030;2023-09-19T01:27:50;16.35;;;3.28;;
32080;SDS011;18593;51.426;7.030;2023-09-19T01:30:39;12.77;;;2.35;;
32080;SDS011;18593;51.426;7.030;2023-09-19T01:33:10;10.00;;;2.50;;
32080;SDS011;18593;51.426;7.030;2023-09-19T01:35:39;10.65;;;2.58;;
32080;SDS011;18593;51.426;7.030;2023-09-19T01:38:07;15.15;;;2.63;;
32080;SDS011;18593;51.426;7.030;2023-09-19T01:40:39;9.80;;;2.70;;
32080;SDS011;18593;51.426;7.030;2023-09-19T01:43:11;11.45;;;3.25;;
32080;SDS011;18593;51.426;7.030;2023-09-19T01:45:46;15.90;;;2.92;;
32080;SDS011;18593;51.426;7.030;2023-09-19T01:48:25;17.35;;;3.30;;
32080;SDS011;18593;51.426;7.030;2023-09-19T01:51:06;9.90;;;2.37;;
32080;SDS011;18593;51.426;7.030;2023-09-19T01:53:36;10.52;;;2.50;;
32080;SDS011;18593;51.426;7.030;2023-09-19T01:58:51;13.27;;;2.70;;
32080;SDS011;18593;51.426;7.030;2023-09-19T02:01:24;11.18;;;2.47;;
32080;SDS011;18593;51.426;7.030;2023-09-19T02:03:53;14.30;;;2.72;;
32080;SDS011;18593;51.426;7.030;2023-09-19T02:06:22;11.25;;;2.65;;
32080;SDS011;18593;51.426;7.030;2023-09-19T02:08:50;14.40;;;3.17;;
32080;SDS011;18593;51.426;7.030;2023-09-19T02:11:18;8.15;;;2.47;;
32080;SDS011;18593;51.426;7.030;2023-09-19T02:13:46;12.15;;;2.67;;
32080;SDS011;18593;51.426;7.030;2023-09-19T02:16:16;16.10;;;2.88;;
32080;SDS011;18593;51.426;7.030;2023-09-19T02:18:48;15.25;;;2.92;;
32080;SDS011;18593;51.426;7.030;2023-09-19T02:21:16;12.05;;;2.55;;
32080;SDS011;18593;51.426;7.030;2023-09-19T02:23:44;12.73;;;3.08;;
32080;SDS011;18593;51.426;7.030;2023-09-19T02:26:12;13.10;;;2.65;;
32080;SDS011;18593;51.426;7.030;2023-09-19T02:28:41;12.38;;;3.00;;
32080;SDS011;18593;51.426;7.030;2023-09-19T02:31:09;11.40;;;2.58;;
32080;SDS011;18593;51.426;7.030;2023-09-19T02:33:36;12.63;;;2.60;;
32080;SDS011;18593;51.426;7.030;2023-09-19T02:36:05;13.18;;;2.88;;
32080;SDS011;18593;51.426;7.030;2023-09-19T02:38:34;10.98;;;2.70;;
32080;SDS011;18593;51.426;7.030;2023-09-19T02:41:02;16.60;;;2.97;;
32080;SDS011;18593;51.426;7.030;2023-09-19T02:43:30;14.73;;;3.00;;
32080;SDS011;18593;51.426;7.030;2023-09-19T02:46:00;14.18;;;3.42;;
32080;SDS011;18593;51.426;7.030;2023-09-19T02:48:28;13.70;;;2.92;;
32080;SDS011;18593;51.426;7.030;2023-09-19T02:53:30;8.52;;;2.40;;
32080;SDS011;18593;51.426;7.030;2023-09-19T02:55:59;15.30;;;3.38;;
32080;SDS011;18593;51.426;7.030;2023-09-19T02:58:28;10.88;;;2.60;;
32080;SDS011;18593;51.426;7.030;2023-09-19T03:01:07;10.27;;;2.83;;
32080;SDS011;18593;51.426;7.030;2023-09-19T03:03:36;9.07;;;2.78;;
32080;SDS011;18593;51.426;7.030;2023-09-19T03:06:06;13.45;;;3.17;;
32080;SDS011;18593;51.426;7.030;2023-09-19T03:08:36;12.05;;;2.78;;
32080;SDS011;18593;51.426;7.030;2023-09-19T03:11:04;13.38;;;2.55;;
32080;SDS011;18593;51.426;7.030;2023-09-19T03:13:38;10.20;;;2.55;;
32080;SDS011;18593;51.426;7.030;2023-09-19T03:16:07;11.98;;;2.65;;
32080;SDS011;18593;51.426;7.030;2023-09-19T03:18:35;10.18;;;2.60;;
32080;SDS011;18593;51.426;7.030;2023-09-19T03:21:05;10.90;;;2.67;;
32080;SDS011;18593;51.426;7.030;2023-09-19T03:23:48;14.52;;;3.00;;
32080;SDS011;18593;51.426;7.030;2023-09-19T03:26:17;14.45;;;2.83;;
32080;SDS011;18593;51.426;7.030;2023-09-19T03:28:46;11.52;;;2.55;;
32080;SDS011;18593;51.426;7.030;2023-09-19T03:31:14;10.98;;;2.78;;
32080;SDS011;18593;51.426;7.030;2023-09-19T03:33:42;13.27;;;3.00;;
32080;SDS011;18593;51.426;7.030;2023-09-19T03:36:11;13.23;;;2.95;;
32080;SDS011;18593;51.426;7.030;2023-09-19T03:38:40;17.08;;;2.95;;
32080;SDS011;18593;51.426;7.030;2023-09-19T03:41:09;11.40;;;3.15;;
32080;SDS011;18593;51.426;7.030;2023-09-19T03:43:40;13.85;;;3.05;;
32080;SDS011;18593;51.426;7.030;2023-09-19T03:46:08;11.93;;;2.50;;
32080;SDS011;18593;51.426;7.030;2023-09-19T03:48:39;10.77;;;2.55;;
32080;SDS011;18593;51.426;7.030;2023-09-19T03:51:08;14.00;;;2.53;;
32080;SDS011;18593;51.426;7.030;2023-09-19T03:53:37;13.50;;;2.85;;
32080;SDS011;18593;51.426;7.030;2023-09-19T03:56:05;19.10;;;2.80;;
32080;SDS011;18593;51.426;7.030;2023-09-19T03:58:35;12.95;;;2.63;;
32080;SDS011;18593;51.426;7.030;2023-09-19T04:01:05;15.00;;;2.78;;
32080;SDS011;18593;51.426;7.030;2023-09-19T04:03:33;13.23;;;2.45;;
32080;SDS011;18593;51.426;7.030;2023-09-19T04:06:11;11.98;;;2.65;;
32080;SDS011;18593;51.426;7.030;2023-09-19T04:08:39;10.60;;;2.67;;
32080;SDS011;18593;51.426;7.030;2023-09-19T04:11:07;11.82;;;2.85;;
32080;SDS011;18593;51.426;7.030;2023-09-19T04:13:39;11.95;;;2.97;;
32080;SDS011;18593;51.426;7.030;2023-09-19T04:16:06;9.85;;;2.53;;
32080;SDS011;18593;51.426;7.030;2023-09-19T04:18:34;12.52;;;2.45;;
32080;SDS011;18593;51.426;7.030;2023-09-19T04:21:04;13.82;;;2.95;;
32080;SDS011;18593;51.426;7.030;2023-09-19T04:23:31;9.13;;;2.53;;
32080;SDS011;18593;51.426;7.030;2023-09-19T04:25:59;9.30;;;2.33;;
32080;SDS011;18593;51.426;7.030;2023-09-19T04:28:31;15.38;;;2.97;;
32080;SDS011;18593;51.426;7.030;2023-09-19T04:31:00;11.70;;;2.73;;
32080;SDS011;18593;51.426;7.030;2023-09-19T04:33:28;12.85;;;3.15;;
32080;SDS011;18593;51.426;7.030;2023-09-19T04:35:56;11.70;;;2.97;;
32080;SDS011;18593;51.426;7.030;2023-09-19T04:38:25;15.27;;;3.20;;
32080;SDS011;18593;51.426;7.030;2023-09-19T04:40:56;11.30;;;2.38;;
32080;SDS011;18593;51.426;7.030;2023-09-19T04:43:25;13.65;;;2.60;;
32080;SDS011;18593;51.426;7.030;2023-09-19T04:45:53;13.65;;;2.78;;
32080;SDS011;18593;51.426;7.030;2023-09-19T04:48:22;10.85;;;2.38;;
32080;SDS011;18593;51.426;7.030;2023-09-19T04:50:50;10.10;;;2.75;;
32080;SDS011;18593;51.426;7.030;2023-09-19T04:53:19;12.23;;;2.95;;
32080;SDS011;18593;51.426;7.030;2023-09-19T04:55:50;10.13;;;3.15;;
32080;SDS011;18593;51.426;7.030;2023-09-19T04:58:21;9.50;;;2.53;;
32080;SDS011;18593;51.426;7.030;2023-09-19T05:00:48;10.23;;;2.53;;
32080;SDS011;18593;51.426;7.030;2023-09-19T05:03:18;14.50;;;2.72;;
32080;SDS011;18593;51.426;7.030;2023-09-19T05:05:49;11.07;;;2.25;;
32080;SDS011;18593;51.426;7.030;2023-09-19T05:08:16;12.43;;;2.92;;
32080;SDS011;18593;51.426;7.030;2023-09-19T05:10:43;14.85;;;2.78;;
32080;SDS011;18593;51.426;7.030;2023-09-19T05:13:11;13.57;;;2.85;;
32080;SDS011;18593;51.426;7.030;2023-09-19T05:15:38;12.85;;;2.90;;
32080;SDS011;18593;51.426;7.030;2023-09-19T05:18:06;8.35;;;2.30;;
32080;SDS011;18593;51.426;7.030;2023-09-19T05:20:36;13.57;;;3.33;;
32080;SDS011;18593;51.426;7.030;2023-09-19T05:23:06;11.57;;;2.63;;
32080;SDS011;18593;51.426;7.030;2023-09-19T05:25:34;17.23;;;2.95;;
32080;SDS011;18593;51.426;7.030;2023-09-19T05:28:04;10.60;;;2.72;;
32080;SDS011;18593;51.426;7.030;2023-09-19T05:30:32;12.52;;;2.83;;
32080;SDS011;18593;51.426;7.030;2023-09-19T05:33:03;17.77;;;3.03;;
32080;SDS011;18593;51.426;7.030;2023-09-19T05:35:31;16.95;;;3.00;;
32080;SDS011;18593;51.426;7.030;2023-09-19T05:38:00;13.07;;;2.97;;
32080;SDS011;18593;51.426;7.030;2023-09-19T05:40:30;13.45;;;2.75;;
32080;SDS011;18593;51.426;7.030;2023-09-19T05:43:00;11.45;;;3.25;;
32080;SDS011;18593;51.426;7.030;2023-09-19T05:45:31;14.52;;;3.33;;
32080;SDS011;18593;51.426;7.030;2023-09-19T05:48:07;13.80;;;2.80;;
32080;SDS011;18593;51.426;7.030;2023-09-19T05:50:36;14.07;;;2.92;;
32080;SDS011;18593;51.426;7.030;2023-09-19T05:53:04;16.58;;;3.47;;
32080;SDS011;18593;51.426;7.030;2023-09-19T05:55:34;16.73;;;3.30;;
32080;SDS011;18593;51.426;7.030;2023-09-19T05:58:02;13.80;;;3.78;;
32080;SDS011;18593;51.426;7.030;2023-09-19T06:00:30;13.57;;;3.15;;
32080;SDS011;18593;51.426;7.030;2023-09-19T06:02:58;12.25;;;2.80;;
32080;SDS011;18593;51.426;7.030;2023-09-19T06:05:26;14.05;;;2.83;;
32080;SDS011;18593;51.426;7.030;2023-09-19T06:07:55;12.68;;;2.75;;
32080;SDS011;18593;51.426;7.030;2023-09-19T06:10:25;12.85;;;3.67;;
32080;SDS011;18593;51.426;7.030;2023-09-19T06:12:55;13.07;;;3.08;;
32080;SDS011;18593;51.426;7.030;2023-09-19T06:15:23;15.65;;;2.97;;
32080;SDS011;18593;51.426;7.030;2023-09-19T06:17:55;13.30;;;3.30;;
32080;SDS011;18593;51.426;7.030;2023-09-19T06:20:24;14.55;;;3.25;;
32080;SDS011;18593;51.426;7.030;2023-09-19T06:22:53;14.23;;;3.10;;
32080;SDS011;18593;51.426;7.030;2023-09-19T06:25:21;11.38;;;2.90;;
32080;SDS011;18593;51.426;7.030;2023-09-19T06:27:49;17.63;;;3.53;;
32080;SDS011;18593;51.426;7.030;2023-09-19T06:32:55;10.90;;;2.67;;
32080;SDS011;18593;51.426;7.030;2023-09-19T06:35:23;12.48;;;2.58;;
32080;SDS011;18593;51.426;7.030;2023-09-19T06:37:52;15.38;;;2.75;;
32080;SDS011;18593;51.426;7.030;2023-09-19T06:40:19;15.00;;;3.20;;
32080;SDS011;18593;51.426;7.030;2023-09-19T06:42:49;15.32;;;2.35;;
32080;SDS011;18593;51.426;7.030;2023-09-19T06:45:19;15.63;;;3.22;;
32080;SDS011;18593;51.426;7.030;2023-09-19T06:47:52;19.83;;;3.35;;
32080;SDS011;18593;51.426;7.030;2023-09-19T06:50:23;19.40;;;3.42;;
32080;SDS011;18593;51.426;7.030;2023-09-19T06:52:51;16.30;;;2.85;;
32080;SDS011;18593;51.426;7.030;2023-09-19T06:55:22;16.42;;;3.22;;
32080;SDS011;18593;51.426;7.030;2023-09-19T06:57:50;14.63;;;3.83;;
32080;SDS011;18593;51.426;7.030;2023-09-19T07:00:19;16.10;;;3.17;;
32080;SDS011;18593;51.426;7.030;2023-09-19T07:02:56;14.38;;;3.30;;
32080;SDS011;18593;51.426;7.030;2023-09-19T07:05:26;15.15;;;2.58;;
32080;SDS011;18593;51.426;7.030;2023-09-19T07:07:54;11.95;;;3.30;;
32080;SDS011;18593;51.426;7.030;2023-09-19T07:10:24;13.45;;;3.13;;
32080;SDS011;18593;51.426;7.030;2023-09-19T07:12:57;16.25;;;2.92;;
32080;SDS011;18593;51.426;7.030;2023-09-19T07:15:26;12.32;;;2.90;;
32080;SDS011;18593;51.426;7.030;2023-09-19T07:17:56;15.95;;;3.13;;
32080;SDS011;18593;51.426;7.030;2023-09-19T07:20:32;20.65;;;3.40;;
32080;SDS011;18593;51.426;7.030;2023-09-19T07:23:00;10.23;;;2.70;;
32080;SDS011;18593;51.426;7.030;2023-09-19T07:25:28;10.13;;;2.80;;
32080;SDS011;18593;51.426;7.030;2023-09-19T07:27:56;10.90;;;2.72;;
32080;SDS011;18593;51.426;7.030;2023-09-19T07:30:26;15.55;;;3.00;;
32080;SDS011;18593;51.426;7.030;2023-09-19T07:32:58;17.38;;;2.88;;
32080;SDS011;18593;51.426;7.030;2023-09-19T07:35:29;13.70;;;2.97;;
32080;SDS011;18593;51.426;7.030;2023-09-19T07:37:57;17.55;;;3.20;;
32080;SDS011;18593;51.426;7.030;2023-09-19T07:40:26;12.05;;;3.05;;
32080;SDS011;18593;51.426;7.030;2023-09-19T07:42:54;9.98;;;3.03;;
32080;SDS011;18593;51.426;7.030;2023-09-19T07:45:28;15.85;;;3.20;;
32080;SDS011;18593;51.426;7.030;2023-09-19T07:47:56;11.95;;;3.10;;
32080;SDS011;18593;51.426;7.030;2023-09-19T07:50:26;12.82;;;2.65;;
32080;SDS011;18593;51.426;7.030;2023-09-19T07:52:54;19.00;;;2.83;;
32080;SDS011;18593;51.426;7.030;2023-09-19T07:55:22;15.05;;;3.42;;
32080;SDS011;18593;51.426;7.030;2023-09-19T07:57:50;14.48;;;3.28;;
32080;SDS011;18593;51.426;7.030;2023-09-19T08:00:18;18.92;;;3.72;;
32080;SDS011;18593;51.426;7.030;2023-09-19T08:02:47;12.93;;;3.13;;
32080;SDS011;18593;51.426;7.030;2023-09-19T08:05:17;15.00;;;2.63;;
32080;SDS011;18593;51.426;7.030;2023-09-19T08:07:46;15.35;;;3.00;;
32080;SDS011;18593;51.426;7.030;2023-09-19T08:10:14;18.27;;;3.45;;
32080;SDS011;18593;51.426;7.030;2023-09-19T08:12:45;13.25;;;3.30;;
32080;SDS011;18593;51.426;7.030;2023-09-19T08:15:13;13.85;;;3.05;;
32080;SDS011;18593;51.426;7.030;2023-09-19T08:17:42;14.50;;;3.00;;
32080;SDS011;18593;51.426;7.030;2023-09-19T08:20:14;13.77;;;3.20;;
32080;SDS011;18593;51.426;7.030;2023-09-19T08:22:43;14.95;;;3.38;;
32080;SDS011;18593;51.426;7.030;2023-09-19T08:25:14;13.07;;;2.70;;
32080;SDS011;18593;51.426;7.030;2023-09-19T08:27:44;12.82;;;2.97;;
32080;SDS011;18593;51.426;7.030;2023-09-19T08:30:13;15.20;;;2.65;;
32080;SDS011;18593;51.426;7.030;2023-09-19T08:32:41;18.48;;;3.35;;
32080;SDS011;18593;51.426;7.030;2023-09-19T08:35:09;12.45;;;3.10;;
32080;SDS011;18593;51.426;7.030;2023-09-19T08:37:38;13.80;;;2.80;;
32080;SDS011;18593;51.426;7.030;2023-09-19T08:40:06;15.85;;;3.60;;
32080;SDS011;18593;51.426;7.030;2023-09-19T08:42:48;17.27;;;3.28;;
32080;SDS011;18593;51.426;7.030;2023-09-19T08:45:17;13.85;;;2.88;;
32080;SDS011;18593;51.426;7.030;2023-09-19T08:47:46;28.38;;;3.88;;
32080;SDS011;18593;51.426;7.030;2023-09-19T08:50:28;16.05;;;3.22;;
32080;SDS011;18593;51.426;7.030;2023-09-19T08:53:00;19.65;;;3.38;;
32080;SDS011;18593;51.426;7.030;2023-09-19T08:55:32;14.93;;;2.75;;
32080;SDS011;18593;51.426;7.030;2023-09-19T08:58:01;20.10;;;3.00;;
32080;SDS011;18593;51.426;7.030;2023-09-19T09:00:32;11.98;;;3.10;;
32080;SDS011;18593;51.426;7.030;2023-09-19T09:03:01;17.33;;;2.67;;
32080;SDS011;18593;51.426;7.030;2023-09-19T09:08:18;11.35;;;2.55;;
32080;SDS011;18593;51.426;7.030;2023-09-19T09:10:48;13.10;;;2.95;;
32080;SDS011;18593;51.426;7.030;2023-09-19T09:13:16;12.13;;;2.72;;
32080;SDS011;18593;51.426;7.030;2023-09-19T09:15:45;13.98;;;2.88;;
32080;SDS011;18593;51.426;7.030;2023-09-19T09:18:13;15.23;;;2.80;;
32080;SDS011;18593;51.426;7.030;2023-09-19T09:20:43;16.45;;;3.45;;
32080;SDS011;18593;51.426;7.030;2023-09-19T09:23:12;16.20;;;2.80;;
32080;SDS011;18593;51.426;7.030;2023-09-19T09:25:53;15.20;;;3.05;;
32080;SDS011;18593;51.426;7.030;2023-09-19T09:28:27;13.82;;;2.70;;
32080;SDS011;18593;51.426;7.030;2023-09-19T09:30:58;13.95;;;2.72;;
32080;SDS011;18593;51.426;7.030;2023-09-19T09:33:28;14.45;;;3.10;;
32080;SDS011;18593;51.426;7.030;2023-09-19T09:35:57;15.30;;;2.80;;
32080;SDS011;18593;51.426;7.030;2023-09-19T09:38:28;11.07;;;2.95;;
32080;SDS011;18593;51.426;7.030;2023-09-19T09:41:12;12.77;;;2.63;;
32080;SDS011;18593;51.426;7.030;2023-09-19T09:43:52;20.48;;;3.78;;
32080;SDS011;18593;51.426;7.030;2023-09-19T09:46:23;18.38;;;3.45;;
32080;SDS011;18593;51.426;7.030;2023-09-19T09:49:09;18.02;;;3.10;;
32080;SDS011;18593;51.426;7.030;2023-09-19T09:51:58;14.68;;;2.90;;
32080;SDS011;18593;51.426;7.030;2023-09-19T09:54:32;15.48;;;2.80;;
32080;SDS011;18593;51.426;7.030;2023-09-19T09:57:18;14.68;;;3.25;;
32080;SDS011;18593;51.426;7.030;2023-09-19T09:59:49;14.70;;;3.42;;
32080;SDS011;18593;51.426;7.030;2023-09-19T10:02:41;15.48;;;3.10;;
32080;SDS011;18593;51.426;7.030;2023-09-19T10:05:15;15.98;;;2.72;;
32080;SDS011;18593;51.426;7.030;2023-09-19T10:08:09;12.27;;;4.68;;
32080;SDS011;18593;51.426;7.030;2023-09-19T10:10:40;16.00;;;3.08;;
32080;SDS011;18593;51.426;7.030;2023-09-19T10:13:20;13.57;;;2.92;;
32080;SDS011;18593;51.426;7.030;2023-09-19T10:15:50;12.50;;;3.00;;
32080;SDS011;18593;51.426;7.030;2023-09-19T10:18:20;21.48;;;3.03;;
32080;SDS011;18593;51.426;7.030;2023-09-19T10:20:49;14.68;;;2.67;;
32080;SDS011;18593;51.426;7.030;2023-09-19T10:23:18;15.82;;;2.95;;
32080;SDS011;18593;51.426;7.030;2023-09-19T10:25:52;14.80;;;2.75;;
32080;SDS011;18593;51.426;7.030;2023-09-19T10:28:22;13.25;;;3.15;;
32080;SDS011;18593;51.426;7.030;2023-09-19T10:30:50;13.63;;;3.33;;
32080;SDS011;18593;51.426;7.030;2023-09-19T10:33:20;11.82;;;2.50;;
32080;SDS011;18593;51.426;7.030;2023-09-19T10:35:57;13.00;;;3.05;;
32080;SDS011;18593;51.426;7.030;2023-09-19T10:38:27;13.07;;;2.83;;
32080;SDS011;18593;51.426;7.030;2023-09-19T10:40:56;12.40;;;2.83;;
32080;SDS011;18593;51.426;7.030;2023-09-19T10:43:31;11.40;;;2.50;;
32080;SDS011;18593;51.426;7.030;2023-09-19T10:46:01;11.75;;;3.38;;
32080;SDS011;18593;51.426;7.030;2023-09-19T10:48:35;16.63;;;2.95;;
32080;SDS011;18593;51.426;7.030;2023-09-19T10:51:06;12.35;;;3.17;;
32080;SDS011;18593;51.426;7.030;2023-09-19T10:53:40;10.43;;;3.13;;
32080;SDS011;18593;51.426;7.030;2023-09-19T10:56:15;11.50;;;3.03;;
32080;SDS011;18593;51.426;7.030;2023-09-19T10:58:58;9.60;;;2.53;;
32080;SDS011;18593;51.426;7.030;2023-09-19T11:01:44;15.82;;;3.03;;
32080;SDS011;18593;51.426;7.030;2023-09-19T11:06:59;11.18;;;2.75;;
32080;SDS011;18593;51.426;7.030;2023-09-19T11:09:43;9.20;;;2.33;;
32080;SDS011;18593;51.426;7.030;2023-09-19T11:12:11;11.45;;;2.28;;
32080;SDS011;18593;51.426;7.030;2023-09-19T11:15:04;17.75;;;3.72;;
32080;SDS011;18593;51.426;7.030;2023-09-19T11:17:36;10.63;;;2.50;;
32080;SDS011;18593;51.426;7.030;2023-09-19T11:23:17;14.50;;;3.10;;
32080;SDS011;18593;51.426;7.030;2023-09-19T11:25:52;12.68;;;2.50;;
32080;SDS011;18593;51.426;7.030;2023-09-19T11:28:36;7.72;;;2.35;;
32080;SDS011;18593;51.426;7.030;2023-09-19T11:34:42;12.57;;;2.90;;
32080;SDS011;18593;51.426;7.030;2023-09-19T11:40:44;11.38;;;2.38;;
32080;SDS011;18593;51.426;7.030;2023-09-19T11:43:32;11.82;;;2.80;;
32080;SDS011;18593;51.426;7.030;2023-09-19T11:46:04;15.88;;;2.97;;
32080;SDS011;18593;51.426;7.030;2023-09-19T11:48:43;12.95;;;2.75;;
32080;SDS011;18593;51.426;7.030;2023-09-19T11:51:12;14.40;;;2.70;;
32080;SDS011;18593;51.426;7.030;2023-09-19T11:54:01;11.77;;;2.63;;
32080;SDS011;18593;51.426;7.030;2023-09-19T11:56:30;8.38;;;2.50;;
32080;SDS011;18593;51.426;7.030;2023-09-19T11:59:06;11.48;;;2.80;;
32080;SDS011;18593;51.426;7.030;2023-09-19T12:01:34;8.95;;;2.67;;
32080;SDS011;18593;51.426;7.030;2023-09-19T12:04:07;10.27;;;2.55;;
32080;SDS011;18593;51.426;7.030;2023-09-19T12:06:37;16.27;;;4.43;;
32080;SDS011;18593;51.426;7.030;2023-09-19T12:09:11;13.95;;;2.88;;
32080;SDS011;18593;51.426;7.030;2023-09-19T12:11:42;13.50;;;2.75;;
32080;SDS011;18593;51.426;7.030;2023-09-19T12:14:10;8.82;;;2.50;;
32080;SDS011;18593;51.426;7.030;2023-09-19T12:16:39;10.48;;;2.90;;
32080;SDS011;18593;51.426;7.030;2023-09-19T12:19:21;9.48;;;2.75;;
32080;SDS011;18593;51.426;7.030;2023-09-19T12:21:54;15.55;;;3.00;;
32080;SDS011;18593;51.426;7.030;2023-09-19T12:24:25;13.45;;;2.55;;
32080;SDS011;18593;51.426;7.030;2023-09-19T12:26:56;12.13;;;3.05;;
32080;SDS011;18593;51.426;7.030;2023-09-19T12:29:30;11.63;;;2.22;;
32080;SDS011;18593;51.426;7.030;2023-09-19T12:31:59;9.55;;;2.58;;
32080;SDS011;18593;51.426;7.030;2023-09-19T12:34:33;13.85;;;2.70;;
32080;SDS011;18593;51.426;7.030;2023-09-19T12:37:04;9.32;;;2.40;;
32080;SDS011;18593;51.426;7.030;2023-09-19T12:39:46;10.82;;;2.40;;
32080;SDS011;18593;51.426;7.030;2023-09-19T12:42:16;10.20;;;2.42;;
32080;SDS011;18593;51.426;7.030;2023-09-19T12:44:46;7.97;;;2.35;;
32080;SDS011;18593;51.426;7.030;2023-09-19T12:47:19;11.88;;;2.60;;
32080;SDS011;18593;51.426;7.030;2023-09-19T12:50:09;12.45;;;2.25;;
32080;SDS011;18593;51.426;7.030;2023-09-19T12:52:44;11.18;;;2.25;;
32080;SDS011;18593;51.426;7.030;2023-09-19T12:55:23;10.98;;;2.55;;
32080;SDS011;18593;51.426;7.030;2023-09-19T12:57:58;9.13;;;2.25;;
32080;SDS011;18593;51.426;7.030;2023-09-19T13:00:37;7.18;;;2.03;;
32080;SDS011;18593;51.426;7.030;2023-09-19T13:03:12;9.85;;;2.17;;
32080;SDS011;18593;51.426;7.030;2023-09-19T13:05:50;9.48;;;2.78;;
32080;SDS011;18593;51.426;7.030;2023-09-19T13:08:26;7.72;;;2.00;;
32080;SDS011;18593;51.426;7.030;2023-09-19T13:11:03;12.95;;;2.53;;
32080;SDS011;18593;51.426;7.030;2023-09-19T13:13:38;8.02;;;2.20;;
32080;SDS011;18593;51.426;7.030;2023-09-19T13:16:09;12.38;;;2.63;;
32080;SDS011;18593;51.426;7.030;2023-09-19T13:18:43;7.43;;;2.10;;
32080;SDS011;18593;51.426;7.030;2023-09-19T13:21:14;9.23;;;1.90;;
32080;SDS011;18593;51.426;7.030;2023-09-19T13:23:47;8.23;;;1.90;;
32080;SDS011;18593;51.426;7.030;2023-09-19T13:26:24;8.13;;;2.22;;
32080;SDS011;18593;51.426;7.030;2023-09-19T13:28:53;9.95;;;2.10;;
32080;SDS011;18593;51.426;7.030;2023-09-19T13:31:20;8.45;;;2.03;;
32080;SDS011;18593;51.426;7.030;2023-09-19T13:33:49;11.93;;;2.50;;
32080;SDS011;18593;51.426;7.030;2023-09-19T13:36:18;7.80;;;1.58;;
32080;SDS011;18593;51.426;7.030;2023-09-19T13:38:46;7.65;;;1.75;;
32080;SDS011;18593;51.426;7.030;2023-09-19T13:41:14;10.88;;;2.15;;
32080;SDS011;18593;51.426;7.030;2023-09-19T13:43:42;6.32;;;1.50;;
32080;SDS011;18593;51.426;7.030;2023-09-19T13:46:14;9.85;;;2.00;;
32080;SDS011;18593;51.426;7.030;2023-09-19T13:48:50;8.50;;;2.10;;
32080;SDS011;18593;51.426;7.030;2023-09-19T13:51:21;9.60;;;2.08;;
32080;SDS011;18593;51.426;7.030;2023-09-19T13:53:49;8.43;;;2.13;;
32080;SDS011;18593;51.426;7.030;2023-09-19T13:56:16;6.00;;;1.52;;
32080;SDS011;18593;51.426;7.030;2023-09-19T13:58:44;5.68;;;1.60;;
32080;SDS011;18593;51.426;7.030;2023-09-19T14:01:13;8.35;;;1.95;;
32080;SDS011;18593;51.426;7.030;2023-09-19T14:03:40;7.45;;;2.08;;
32080;SDS011;18593;51.426;7.030;2023-09-19T14:06:11;11.60;;;1.70;;
32080;SDS011;18593;51.426;7.030;2023-09-19T14:08:40;8.35;;;1.80;;
32080;SDS011;18593;51.426;7.030;2023-09-19T14:11:09;7.55;;;1.45;;
32080;SDS011;18593;51.426;7.030;2023-09-19T14:13:40;8.40;;;1.60;;
32080;SDS011;18593;51.426;7.030;2023-09-19T14:16:12;6.95;;;1.50;;
32080;SDS011;18593;51.426;7.030;2023-09-19T14:18:39;6.15;;;1.50;;
32080;SDS011;18593;51.426;7.030;2023-09-19T14:21:07;8.50;;;1.83;;
32080;SDS011;18593;51.426;7.030;2023-09-19T14:23:49;12.50;;;2.15;;
32080;SDS011;18593;51.426;7.030;2023-09-19T14:26:17;7.45;;;1.88;;
32080;SDS011;18593;51.426;7.030;2023-09-19T14:28:44;13.43;;;1.73;;
32080;SDS011;18593;51.426;7.030;2023-09-19T14:31:12;11.60;;;2.20;;
32080;SDS011;18593;51.426;7.030;2023-09-19T14:33:40;5.03;;;1.30;;
32080;SDS011;18593;51.426;7.030;2023-09-19T14:36:09;9.20;;;1.70;;
32080;SDS011;18593;51.426;7.030;2023-09-19T14:38:38;7.78;;;1.50;;
32080;SDS011;18593;51.426;7.030;2023-09-19T14:41:07;7.15;;;1.70;;
32080;SDS011;18593;51.426;7.030;2023-09-19T14:43:37;9.93;;;1.42;;
32080;SDS011;18593;51.426;7.030;2023-09-19T14:46:05;8.93;;;1.40;;
32080;SDS011;18593;51.426;7.030;2023-09-19T14:48:35;8.15;;;1.95;;
32080;SDS011;18593;51.426;7.030;2023-09-19T14:51:02;5.32;;;1.63;;
32080;SDS011;18593;51.426;7.030;2023-09-19T14:53:32;5.30;;;1.50;;
32080;SDS011;18593;51.426;7.030;2023-09-19T14:56:00;6.40;;;1.42;;
32080;SDS011;18593;51.426;7.030;2023-09-19T14:58:30;7.03;;;1.50;;
32080;SDS011;18593;51.426;7.030;2023-09-19T15:01:02;5.45;;;1.58;;
32080;SDS011;18593;51.426;7.030;2023-09-19T15:03:31;6.40;;;1.35;;
32080;SDS011;18593;51.426;7.030;2023-09-19T15:06:00;4.65;;;1.13;;
32080;SDS011;18593;51.426;7.030;2023-09-19T15:08:31;10.40;;;1.65;;
32080;SDS011;18593;51.426;7.030;2023-09-19T15:11:00;7.30;;;1.58;;
32080;SDS011;18593;51.426;7.030;2023-09-19T15:13:32;6.07;;;1.45;;
32080;SDS011;18593;51.426;7.030;2023-09-19T15:16:08;7.93;;;1.63;;
32080;SDS011;18593;51.426;7.030;2023-09-19T15:18:37;6.13;;;1.42;;
32080;SDS011;18593;51.426;7.030;2023-09-19T15:21:06;5.43;;;1.15;;
32080;SDS011;18593;51.426;7.030;2023-09-19T15:23:37;9.43;;;1.73;;
32080;SDS011;18593;51.426;7.030;2023-09-19T15:26:06;7.63;;;1.67;;